sensor_id;sensor_type;location;lat;lon;timestamp;P1;durP1;ratioP1;P2;durP2;ratioP2
38465;SDS011;24244;51.950;5.902;2022-07-23T00:00:34;7.43;;;2.70;;
38465;SDS011;24244;51.950;5.902;2022-07-23T00:03:01;6.50;;;2.63;;
38465;SDS011;24244;51.950;5.902;2022-07-23T00:05:27;8.52;;;2.80;;
38465;SDS011;24244;51.950;5.902;2022-07-23T00:07:52;6.32;;;2.72;;
38465;SDS011;24244;51.950;5.902;2022-07-23T00:10:18;7.03;;;2.60;;
38465;SDS011;24244;51.950;5.902;2022-07-23T00:12:45;6.45;;;2.83;;
38465;SDS011;24244;51.950;5.902;2022-07-23T00:15:10;6.40;;;2.67;;
38465;SDS011;24244;51.950;5.902;2022-07-23T00:17:36;6.07;;;2.70;;
38465;SDS011;24244;51.950;5.902;2022-07-23T00:20:02;8.02;;;2.55;;
38465;SDS011;24244;51.950;5.902;2022-07-23T00:22:28;6.75;;;2.72;;
38465;SDS011;24244;51.950;5.902;2022-07-23T00:24:54;7.10;;;2.58;;
38465;SDS011;24244;51.950;5.902;2022-07-23T00:27:20;7.47;;;2.80;;
38465;SDS011;24244;51.950;5.902;2022-07-23T00:29:47;6.65;;;3.00;;
38465;SDS011;24244;51.950;5.902;2022-07-23T00:32:13;6.97;;;2.65;;
38465;SDS011;24244;51.950;5.902;2022-07-23T00:34:38;5.93;;;2.50;;
38465;SDS011;24244;51.950;5.902;2022-07-23T00:37:04;9.00;;;2.67;;
38465;SDS011;24244;51.950;5.902;2022-07-23T00:39:29;7.55;;;2.80;;
38465;SDS011;24244;51.950;5.902;2022-07-23T00:41:55;7.22;;;3.33;;
38465;SDS011;24244;51.950;5.902;2022-07-23T00:44:21;7.35;;;2.90;;
38465;SDS011;24244;51.950;5.902;2022-07-23T00:46:50;5.75;;;2.70;;
38465;SDS011;24244;51.950;5.902;2022-07-23T00:49:18;6.70;;;3.03;;
38465;SDS011;24244;51.950;5.902;2022-07-23T00:51:45;6.80;;;2.80;;
38465;SDS011;24244;51.950;5.902;2022-07-23T00:54:11;5.50;;;2.63;;
38465;SDS011;24244;51.950;5.902;2022-07-23T00:56:37;6.95;;;2.92;;
38465;SDS011;24244;51.950;5.902;2022-07-23T00:59:03;6.95;;;2.75;;
38465;SDS011;24244;51.950;5.902;2022-07-23T01:01:28;7.75;;;3.10;;
38465;SDS011;24244;51.950;5.902;2022-07-23T01:03:55;6.88;;;3.00;;
38465;SDS011;24244;51.950;5.902;2022-07-23T01:06:21;5.78;;;2.70;;
38465;SDS011;24244;51.950;5.902;2022-07-23T01:08:47;6.10;;;2.65;;
38465;SDS011;24244;51.950;5.902;2022-07-23T01:11:13;7.25;;;2.80;;
38465;SDS011;24244;51.950;5.902;2022-07-23T01:13:40;8.57;;;3.20;;
38465;SDS011;24244;51.950;5.902;2022-07-23T01:16:06;7.18;;;2.95;;
38465;SDS011;24244;51.950;5.902;2022-07-23T01:18:32;7.72;;;3.20;;
38465;SDS011;24244;51.950;5.902;2022-07-23T01:20:58;7.32;;;3.20;;
38465;SDS011;24244;51.950;5.902;2022-07-23T01:23:25;7.95;;;3.53;;
38465;SDS011;24244;51.950;5.902;2022-07-23T01:25:52;7.45;;;3.35;;
38465;SDS011;24244;51.950;5.902;2022-07-23T01:28:18;9.77;;;3.40;;
38465;SDS011;24244;51.950;5.902;2022-07-23T01:30:43;8.20;;;3.55;;
38465;SDS011;24244;51.950;5.902;2022-07-23T01:33:09;7.97;;;3.25;;
38465;SDS011;24244;51.950;5.902;2022-07-23T01:35:35;6.97;;;3.30;;
38465;SDS011;24244;51.950;5.902;2022-07-23T01:38:01;7.93;;;3.40;;
38465;SDS011;24244;51.950;5.902;2022-07-23T01:40:28;7.53;;;3.03;;
38465;SDS011;24244;51.950;5.902;2022-07-23T01:42:54;8.02;;;3.90;;
38465;SDS011;24244;51.950;5.902;2022-07-23T01:45:19;8.85;;;3.58;;
38465;SDS011;24244;51.950;5.902;2022-07-23T01:47:45;7.22;;;2.97;;
38465;SDS011;24244;51.950;5.902;2022-07-23T01:50:11;6.63;;;3.22;;
38465;SDS011;24244;51.950;5.902;2022-07-23T01:52:37;7.25;;;3.17;;
38465;SDS011;24244;51.950;5.902;2022-07-23T01:55:03;8.10;;;3.63;;
38465;SDS011;24244;51.950;5.902;2022-07-23T01:57:33;6.60;;;3.35;;
38465;SDS011;24244;51.950;5.902;2022-07-23T01:59:59;6.43;;;3.30;;
38465;SDS011;24244;51.950;5.902;2022-07-23T02:02:24;7.07;;;3.67;;
38465;SDS011;24244;51.950;5.902;2022-07-23T02:04:50;7.85;;;3.95;;
38465;SDS011;24244;51.950;5.902;2022-07-23T02:07:15;7.65;;;3.63;;
38465;SDS011;24244;51.950;5.902;2022-07-23T02:09:41;7.88;;;3.78;;
38465;SDS011;24244;51.950;5.902;2022-07-23T02:12:07;7.30;;;3.88;;
38465;SDS011;24244;51.950;5.902;2022-07-23T02:14:34;7.25;;;3.50;;
38465;SDS011;24244;51.950;5.902;2022-07-23T02:17:00;8.10;;;3.45;;
38465;SDS011;24244;51.950;5.902;2022-07-23T02:19:26;7.95;;;3.30;;
38465;SDS011;24244;51.950;5.902;2022-07-23T02:21:51;8.27;;;3.65;;
38465;SDS011;24244;51.950;5.902;2022-07-23T02:24:17;7.13;;;3.28;;
38465;SDS011;24244;51.950;5.902;2022-07-23T02:26:43;6.65;;;3.28;;
38465;SDS011;24244;51.950;5.902;2022-07-23T02:29:08;7.30;;;3.60;;
38465;SDS011;24244;51.950;5.902;2022-07-23T02:31:36;7.20;;;3.08;;
38465;SDS011;24244;51.950;5.902;2022-07-23T02:34:01;6.50;;;3.20;;
38465;SDS011;24244;51.950;5.902;2022-07-23T02:36:27;7.47;;;3.00;;
38465;SDS011;24244;51.950;5.902;2022-07-23T02:38:53;6.90;;;3.33;;
38465;SDS011;24244;51.950;5.902;2022-07-23T02:41:18;7.47;;;2.92;;
38465;SDS011;24244;51.950;5.902;2022-07-23T02:43:44;6.57;;;2.78;;
38465;SDS011;24244;51.950;5.902;2022-07-23T02:46:11;7.70;;;3.08;;
38465;SDS011;24244;51.950;5.902;2022-07-23T02:48:38;7.35;;;2.63;;
38465;SDS011;24244;51.950;5.902;2022-07-23T02:51:03;7.72;;;2.97;;
38465;SDS011;24244;51.950;5.902;2022-07-23T02:53:29;7.35;;;2.88;;
38465;SDS011;24244;51.950;5.902;2022-07-23T02:55:54;6.00;;;3.08;;
38465;SDS011;24244;51.950;5.902;2022-07-23T02:58:20;6.43;;;3.00;;
38465;SDS011;24244;51.950;5.902;2022-07-23T03:00:46;7.03;;;3.45;;
38465;SDS011;24244;51.950;5.902;2022-07-23T03:03:12;6.38;;;3.20;;
38465;SDS011;24244;51.950;5.902;2022-07-23T03:05:38;6.97;;;3.00;;
38465;SDS011;24244;51.950;5.902;2022-07-23T03:08:04;6.53;;;3.08;;
38465;SDS011;24244;51.950;5.902;2022-07-23T03:10:30;7.32;;;3.20;;
38465;SDS011;24244;51.950;5.902;2022-07-23T03:12:55;7.32;;;3.08;;
38465;SDS011;24244;51.950;5.902;2022-07-23T03:15:21;7.07;;;3.10;;
38465;SDS011;24244;51.950;5.902;2022-07-23T03:17:47;8.32;;;3.22;;
38465;SDS011;24244;51.950;5.902;2022-07-23T03:20:13;7.75;;;3.00;;
38465;SDS011;24244;51.950;5.902;2022-07-23T03:22:40;6.80;;;2.88;;
38465;SDS011;24244;51.950;5.902;2022-07-23T03:25:06;6.97;;;3.13;;
38465;SDS011;24244;51.950;5.902;2022-07-23T03:27:52;6.40;;;3.00;;
38465;SDS011;24244;51.950;5.902;2022-07-23T03:30:17;6.55;;;2.90;;
38465;SDS011;24244;51.950;5.902;2022-07-23T03:32:43;6.47;;;3.10;;
38465;SDS011;24244;51.950;5.902;2022-07-23T03:35:09;7.47;;;2.88;;
38465;SDS011;24244;51.950;5.902;2022-07-23T03:37:35;6.75;;;2.88;;
38465;SDS011;24244;51.950;5.902;2022-07-23T03:40:02;6.50;;;2.92;;
38465;SDS011;24244;51.950;5.902;2022-07-23T03:42:29;7.07;;;2.63;;
38465;SDS011;24244;51.950;5.902;2022-07-23T03:44:54;8.23;;;2.80;;
38465;SDS011;24244;51.950;5.902;2022-07-23T03:47:20;6.53;;;2.50;;
38465;SDS011;24244;51.950;5.902;2022-07-23T03:49:46;7.65;;;2.88;;
38465;SDS011;24244;51.950;5.902;2022-07-23T03:52:12;6.93;;;2.65;;
38465;SDS011;24244;51.950;5.902;2022-07-23T03:54:37;7.10;;;2.88;;
38465;SDS011;24244;51.950;5.902;2022-07-23T03:57:04;7.15;;;2.80;;
38465;SDS011;24244;51.950;5.902;2022-07-23T03:59:30;6.88;;;2.42;;
38465;SDS011;24244;51.950;5.902;2022-07-23T04:01:56;8.02;;;2.58;;
38465;SDS011;24244;51.950;5.902;2022-07-23T04:04:21;6.25;;;2.63;;
38465;SDS011;24244;51.950;5.902;2022-07-23T04:06:47;5.95;;;2.90;;
38465;SDS011;24244;51.950;5.902;2022-07-23T04:09:12;6.53;;;2.53;;
38465;SDS011;24244;51.950;5.902;2022-07-23T04:11:38;6.15;;;2.83;;
38465;SDS011;24244;51.950;5.902;2022-07-23T04:14:05;7.15;;;2.65;;
38465;SDS011;24244;51.950;5.902;2022-07-23T04:16:30;6.65;;;2.63;;
38465;SDS011;24244;51.950;5.902;2022-07-23T04:18:56;7.03;;;2.97;;
38465;SDS011;24244;51.950;5.902;2022-07-23T04:21:22;6.43;;;2.80;;
38465;SDS011;24244;51.950;5.902;2022-07-23T04:23:48;7.22;;;3.03;;
38465;SDS011;24244;51.950;5.902;2022-07-23T04:26:14;7.38;;;2.78;;
38465;SDS011;24244;51.950;5.902;2022-07-23T04:28:39;7.15;;;2.90;;
38465;SDS011;24244;51.950;5.902;2022-07-23T04:31:06;6.13;;;2.72;;
38465;SDS011;24244;51.950;5.902;2022-07-23T04:33:32;7.50;;;2.88;;
38465;SDS011;24244;51.950;5.902;2022-07-23T04:35:57;6.63;;;2.88;;
38465;SDS011;24244;51.950;5.902;2022-07-23T04:38:23;6.55;;;3.05;;
38465;SDS011;24244;51.950;5.902;2022-07-23T04:40:48;6.07;;;2.67;;
38465;SDS011;24244;51.950;5.902;2022-07-23T04:43:14;7.68;;;2.78;;
38465;SDS011;24244;51.950;5.902;2022-07-23T04:45:39;7.07;;;2.63;;
38465;SDS011;24244;51.950;5.902;2022-07-23T04:48:06;6.47;;;2.75;;
38465;SDS011;24244;51.950;5.902;2022-07-23T04:50:32;5.70;;;2.67;;
38465;SDS011;24244;51.950;5.902;2022-07-23T04:52:57;8.50;;;2.80;;
38465;SDS011;24244;51.950;5.902;2022-07-23T04:55:23;7.38;;;3.00;;
38465;SDS011;24244;51.950;5.902;2022-07-23T04:57:48;7.38;;;2.97;;
38465;SDS011;24244;51.950;5.902;2022-07-23T05:00:14;6.53;;;2.97;;
38465;SDS011;24244;51.950;5.902;2022-07-23T05:02:41;7.40;;;3.03;;
38465;SDS011;24244;51.950;5.902;2022-07-23T05:05:08;8.07;;;3.10;;
38465;SDS011;24244;51.950;5.902;2022-07-23T05:07:34;7.85;;;2.90;;
38465;SDS011;24244;51.950;5.902;2022-07-23T05:09:59;6.65;;;3.03;;
38465;SDS011;24244;51.950;5.902;2022-07-23T05:12:25;7.38;;;2.78;;
38465;SDS011;24244;51.950;5.902;2022-07-23T05:14:50;6.53;;;3.00;;
38465;SDS011;24244;51.950;5.902;2022-07-23T05:17:17;6.80;;;3.30;;
38465;SDS011;24244;51.950;5.902;2022-07-23T05:19:43;8.50;;;3.00;;
38465;SDS011;24244;51.950;5.902;2022-07-23T05:22:10;7.68;;;3.10;;
38465;SDS011;24244;51.950;5.902;2022-07-23T05:24:35;6.18;;;2.85;;
38465;SDS011;24244;51.950;5.902;2022-07-23T05:27:01;7.60;;;2.92;;
38465;SDS011;24244;51.950;5.902;2022-07-23T05:29:26;6.55;;;2.78;;
38465;SDS011;24244;51.950;5.902;2022-07-23T05:31:52;6.50;;;2.55;;
38465;SDS011;24244;51.950;5.902;2022-07-23T05:34:17;6.50;;;2.58;;
38465;SDS011;24244;51.950;5.902;2022-07-23T05:36:42;5.80;;;2.58;;
38465;SDS011;24244;51.950;5.902;2022-07-23T05:39:09;6.07;;;2.47;;
38465;SDS011;24244;51.950;5.902;2022-07-23T05:41:35;7.07;;;2.80;;
38465;SDS011;24244;51.950;5.902;2022-07-23T05:44:00;7.65;;;2.72;;
38465;SDS011;24244;51.950;5.902;2022-07-23T05:46:26;6.60;;;2.80;;
38465;SDS011;24244;51.950;5.902;2022-07-23T05:48:51;7.80;;;2.95;;
38465;SDS011;24244;51.950;5.902;2022-07-23T05:51:19;7.38;;;2.45;;
38465;SDS011;24244;51.950;5.902;2022-07-23T05:53:45;5.40;;;2.20;;
38465;SDS011;24244;51.950;5.902;2022-07-23T05:56:11;7.00;;;2.63;;
38465;SDS011;24244;51.950;5.902;2022-07-23T05:58:37;7.57;;;2.80;;
38465;SDS011;24244;51.950;5.902;2022-07-23T06:01:02;8.30;;;3.13;;
38465;SDS011;24244;51.950;5.902;2022-07-23T06:03:28;7.05;;;2.75;;
38465;SDS011;24244;51.950;5.902;2022-07-23T06:05:53;8.50;;;2.90;;
38465;SDS011;24244;51.950;5.902;2022-07-23T06:08:19;6.35;;;2.75;;
38465;SDS011;24244;51.950;5.902;2022-07-23T06:10:44;6.88;;;2.72;;
38465;SDS011;24244;51.950;5.902;2022-07-23T06:13:11;6.78;;;2.53;;
38465;SDS011;24244;51.950;5.902;2022-07-23T06:15:37;5.72;;;2.58;;
38465;SDS011;24244;51.950;5.902;2022-07-23T06:18:03;6.07;;;2.60;;
38465;SDS011;24244;51.950;5.902;2022-07-23T06:20:28;5.22;;;2.20;;
38465;SDS011;24244;51.950;5.902;2022-07-23T06:22:54;6.43;;;2.60;;
38465;SDS011;24244;51.950;5.902;2022-07-23T06:25:19;5.28;;;2.20;;
38465;SDS011;24244;51.950;5.902;2022-07-23T06:27:45;6.55;;;2.38;;
38465;SDS011;24244;51.950;5.902;2022-07-23T06:30:13;6.70;;;2.22;;
38465;SDS011;24244;51.950;5.902;2022-07-23T06:32:41;5.68;;;2.17;;
38465;SDS011;24244;51.950;5.902;2022-07-23T06:35:07;7.50;;;2.58;;
38465;SDS011;24244;51.950;5.902;2022-07-23T06:37:32;5.90;;;2.17;;
38465;SDS011;24244;51.950;5.902;2022-07-23T06:39:58;5.85;;;2.30;;
38465;SDS011;24244;51.950;5.902;2022-07-23T06:42:23;6.68;;;2.42;;
38465;SDS011;24244;51.950;5.902;2022-07-23T06:44:49;5.75;;;2.10;;
38465;SDS011;24244;51.950;5.902;2022-07-23T06:47:16;5.47;;;2.30;;
38465;SDS011;24244;51.950;5.902;2022-07-23T06:49:42;7.80;;;2.35;;
38465;SDS011;24244;51.950;5.902;2022-07-23T06:52:08;7.20;;;2.55;;
38465;SDS011;24244;51.950;5.902;2022-07-23T06:54:33;5.45;;;2.20;;
38465;SDS011;24244;51.950;5.902;2022-07-23T06:56:59;5.75;;;2.17;;
38465;SDS011;24244;51.950;5.902;2022-07-23T06:59:25;7.50;;;2.25;;
38465;SDS011;24244;51.950;5.902;2022-07-23T07:01:50;5.93;;;2.30;;
38465;SDS011;24244;51.950;5.902;2022-07-23T07:04:18;6.50;;;2.10;;
38465;SDS011;24244;51.950;5.902;2022-07-23T07:06:43;6.93;;;2.08;;
38465;SDS011;24244;51.950;5.902;2022-07-23T07:09:08;5.20;;;1.90;;
38465;SDS011;24244;51.950;5.902;2022-07-23T07:11:34;5.60;;;2.15;;
38465;SDS011;24244;51.950;5.902;2022-07-23T07:14:00;6.78;;;2.17;;
38465;SDS011;24244;51.950;5.902;2022-07-23T07:16:26;4.68;;;1.63;;
38465;SDS011;24244;51.950;5.902;2022-07-23T07:18:51;6.45;;;2.03;;
38465;SDS011;24244;51.950;5.902;2022-07-23T07:21:18;5.80;;;2.13;;
38465;SDS011;24244;51.950;5.902;2022-07-23T07:23:43;5.78;;;2.03;;
38465;SDS011;24244;51.950;5.902;2022-07-23T07:26:09;6.35;;;2.20;;
38465;SDS011;24244;51.950;5.902;2022-07-23T07:28:34;6.95;;;2.50;;
38465;SDS011;24244;51.950;5.902;2022-07-23T07:31:00;5.05;;;2.20;;
38465;SDS011;24244;51.950;5.902;2022-07-23T07:33:25;5.22;;;1.85;;
38465;SDS011;24244;51.950;5.902;2022-07-23T07:35:51;6.05;;;2.50;;
38465;SDS011;24244;51.950;5.902;2022-07-23T07:38:18;5.22;;;2.08;;
38465;SDS011;24244;51.950;5.902;2022-07-23T07:40:44;6.28;;;2.10;;
38465;SDS011;24244;51.950;5.902;2022-07-23T07:43:09;7.00;;;2.40;;
38465;SDS011;24244;51.950;5.902;2022-07-23T07:45:35;6.43;;;2.65;;
38465;SDS011;24244;51.950;5.902;2022-07-23T07:48:00;5.15;;;2.17;;
38465;SDS011;24244;51.950;5.902;2022-07-23T07:50:26;6.00;;;2.20;;
38465;SDS011;24244;51.950;5.902;2022-07-23T07:52:52;7.50;;;2.17;;
38465;SDS011;24244;51.950;5.902;2022-07-23T07:55:19;5.82;;;2.15;;
38465;SDS011;24244;51.950;5.902;2022-07-23T07:57:44;5.03;;;2.17;;
38465;SDS011;24244;51.950;5.902;2022-07-23T08:00:10;6.90;;;2.40;;
38465;SDS011;24244;51.950;5.902;2022-07-23T08:02:43;5.32;;;2.28;;
38465;SDS011;24244;51.950;5.902;2022-07-23T08:05:11;6.20;;;2.20;;
38465;SDS011;24244;51.950;5.902;2022-07-23T08:07:37;5.65;;;2.20;;
38465;SDS011;24244;51.950;5.902;2022-07-23T08:10:04;5.20;;;1.95;;
38465;SDS011;24244;51.950;5.902;2022-07-23T08:12:38;6.10;;;2.25;;
38465;SDS011;24244;51.950;5.902;2022-07-23T08:15:05;5.47;;;2.08;;
38465;SDS011;24244;51.950;5.902;2022-07-23T08:17:33;5.85;;;2.20;;
38465;SDS011;24244;51.950;5.902;2022-07-23T08:19:59;5.05;;;2.10;;
38465;SDS011;24244;51.950;5.902;2022-07-23T08:22:25;5.40;;;2.00;;
38465;SDS011;24244;51.950;5.902;2022-07-23T08:24:50;7.18;;;2.42;;
38465;SDS011;24244;51.950;5.902;2022-07-23T08:27:16;5.57;;;2.25;;
38465;SDS011;24244;51.950;5.902;2022-07-23T08:29:43;6.97;;;2.38;;
38465;SDS011;24244;51.950;5.902;2022-07-23T08:32:08;6.57;;;2.33;;
38465;SDS011;24244;51.950;5.902;2022-07-23T08:34:34;6.57;;;2.10;;
38465;SDS011;24244;51.950;5.902;2022-07-23T08:36:59;6.03;;;2.20;;
38465;SDS011;24244;51.950;5.902;2022-07-23T08:39:25;4.05;;;1.75;;
38465;SDS011;24244;51.950;5.902;2022-07-23T08:41:50;5.72;;;2.10;;
38465;SDS011;24244;51.950;5.902;2022-07-23T08:44:16;5.88;;;2.30;;
38465;SDS011;24244;51.950;5.902;2022-07-23T08:46:44;5.32;;;2.28;;
38465;SDS011;24244;51.950;5.902;2022-07-23T08:49:10;5.15;;;2.17;;
38465;SDS011;24244;51.950;5.902;2022-07-23T08:51:37;6.28;;;2.30;;
38465;SDS011;24244;51.950;5.902;2022-07-23T08:54:03;6.25;;;2.25;;
38465;SDS011;24244;51.950;5.902;2022-07-23T08:56:29;6.20;;;2.00;;
38465;SDS011;24244;51.950;5.902;2022-07-23T08:58:55;6.88;;;2.53;;
38465;SDS011;24244;51.950;5.902;2022-07-23T09:01:23;6.63;;;2.20;;
38465;SDS011;24244;51.950;5.902;2022-07-23T09:03:50;5.43;;;2.00;;
38465;SDS011;24244;51.950;5.902;2022-07-23T09:06:17;5.78;;;2.05;;
38465;SDS011;24244;51.950;5.902;2022-07-23T09:08:43;5.65;;;2.13;;
38465;SDS011;24244;51.950;5.902;2022-07-23T09:11:09;6.68;;;2.20;;
38465;SDS011;24244;51.950;5.902;2022-07-23T09:13:37;5.80;;;2.08;;
38465;SDS011;24244;51.950;5.902;2022-07-23T09:16:05;4.88;;;1.88;;
38465;SDS011;24244;51.950;5.902;2022-07-23T09:18:43;5.32;;;1.77;;
38465;SDS011;24244;51.950;5.902;2022-07-23T09:21:16;5.40;;;1.88;;
38465;SDS011;24244;51.950;5.902;2022-07-23T09:23:44;5.10;;;2.15;;
38465;SDS011;24244;51.950;5.902;2022-07-23T09:29:03;5.10;;;2.15;;
38465;SDS011;24244;51.950;5.902;2022-07-23T09:31:32;5.55;;;1.90;;
38465;SDS011;24244;51.950;5.902;2022-07-23T09:34:08;5.32;;;1.90;;
38465;SDS011;24244;51.950;5.902;2022-07-23T09:36:36;7.32;;;2.15;;
38465;SDS011;24244;51.950;5.902;2022-07-23T09:39:03;6.40;;;1.67;;
38465;SDS011;24244;51.950;5.902;2022-07-23T09:41:33;5.47;;;2.00;;
38465;SDS011;24244;51.950;5.902;2022-07-23T09:44:06;4.13;;;1.80;;
38465;SDS011;24244;51.950;5.902;2022-07-23T09:46:33;6.20;;;2.00;;
38465;SDS011;24244;51.950;5.902;2022-07-23T09:48:59;5.07;;;1.80;;
38465;SDS011;24244;51.950;5.902;2022-07-23T09:51:41;4.33;;;1.67;;
38465;SDS011;24244;51.950;5.902;2022-07-23T09:54:10;5.28;;;2.05;;
38465;SDS011;24244;51.950;5.902;2022-07-23T09:56:47;4.80;;;1.98;;
38465;SDS011;24244;51.950;5.902;2022-07-23T09:59:13;6.03;;;2.20;;
38465;SDS011;24244;51.950;5.902;2022-07-23T10:01:43;4.90;;;2.00;;
38465;SDS011;24244;51.950;5.902;2022-07-23T10:04:09;4.88;;;1.95;;
38465;SDS011;24244;51.950;5.902;2022-07-23T10:06:36;4.90;;;1.90;;
38465;SDS011;24244;51.950;5.902;2022-07-23T10:09:05;6.45;;;2.00;;
38465;SDS011;24244;51.950;5.902;2022-07-23T10:11:32;4.70;;;1.77;;
38465;SDS011;24244;51.950;5.902;2022-07-23T10:13:59;5.13;;;1.90;;
38465;SDS011;24244;51.950;5.902;2022-07-23T10:16:29;6.53;;;1.75;;
38465;SDS011;24244;51.950;5.902;2022-07-23T10:18:55;5.30;;;2.00;;
38465;SDS011;24244;51.950;5.902;2022-07-23T10:21:23;5.10;;;1.88;;
38465;SDS011;24244;51.950;5.902;2022-07-23T10:23:58;6.40;;;2.10;;
38465;SDS011;24244;51.950;5.902;2022-07-23T10:26:36;7.90;;;2.45;;
38465;SDS011;24244;51.950;5.902;2022-07-23T10:29:09;7.10;;;2.20;;
38465;SDS011;24244;51.950;5.902;2022-07-23T10:31:47;5.13;;;2.00;;
38465;SDS011;24244;51.950;5.902;2022-07-23T10:34:21;6.68;;;1.83;;
38465;SDS011;24244;51.950;5.902;2022-07-23T10:36:56;5.53;;;2.00;;
38465;SDS011;24244;51.950;5.902;2022-07-23T10:39:28;4.72;;;1.92;;
38465;SDS011;24244;51.950;5.902;2022-07-23T10:42:08;4.97;;;1.90;;
38465;SDS011;24244;51.950;5.902;2022-07-23T10:44:38;5.00;;;1.83;;
38465;SDS011;24244;51.950;5.902;2022-07-23T10:47:05;5.78;;;1.85;;
38465;SDS011;24244;51.950;5.902;2022-07-23T10:49:40;4.88;;;1.77;;
38465;SDS011;24244;51.950;5.902;2022-07-23T10:52:22;6.45;;;2.20;;
38465;SDS011;24244;51.950;5.902;2022-07-23T10:54:49;6.15;;;1.83;;
38465;SDS011;24244;51.950;5.902;2022-07-23T10:57:19;5.07;;;2.05;;
38465;SDS011;24244;51.950;5.902;2022-07-23T11:02:54;6.43;;;2.35;;
38465;SDS011;24244;51.950;5.902;2022-07-23T11:05:24;6.32;;;2.40;;
38465;SDS011;24244;51.950;5.902;2022-07-23T11:10:47;5.28;;;1.95;;
38465;SDS011;24244;51.950;5.902;2022-07-23T11:13:35;4.82;;;1.80;;
38465;SDS011;24244;51.950;5.902;2022-07-23T11:16:06;7.22;;;2.50;;
38465;SDS011;24244;51.950;5.902;2022-07-23T11:18:56;5.22;;;2.05;;
38465;SDS011;24244;51.950;5.902;2022-07-23T11:21:41;5.65;;;2.35;;
38465;SDS011;24244;51.950;5.902;2022-07-23T11:24:08;4.78;;;1.90;;
38465;SDS011;24244;51.950;5.902;2022-07-23T11:26:45;5.53;;;1.75;;
38465;SDS011;24244;51.950;5.902;2022-07-23T11:32:18;5.28;;;2.03;;
38465;SDS011;24244;51.950;5.902;2022-07-23T11:34:53;5.60;;;2.15;;
38465;SDS011;24244;51.950;5.902;2022-07-23T11:37:27;5.78;;;2.20;;
38465;SDS011;24244;51.950;5.902;2022-07-23T11:39:57;5.05;;;2.20;;
38465;SDS011;24244;51.950;5.902;2022-07-23T11:42:23;5.25;;;2.00;;
38465;SDS011;24244;51.950;5.902;2022-07-23T11:44:50;5.88;;;2.50;;
38465;SDS011;24244;51.950;5.902;2022-07-23T11:47:21;6.25;;;2.28;;
38465;SDS011;24244;51.950;5.902;2022-07-23T11:49:51;5.25;;;1.80;;
38465;SDS011;24244;51.950;5.902;2022-07-23T11:52:18;5.18;;;1.90;;
38465;SDS011;24244;51.950;5.902;2022-07-23T11:54:47;5.25;;;2.00;;
38465;SDS011;24244;51.950;5.902;2022-07-23T11:57:13;4.75;;;2.03;;
38465;SDS011;24244;51.950;5.902;2022-07-23T11:59:39;6.35;;;2.60;;
38465;SDS011;24244;51.950;5.902;2022-07-23T12:02:09;6.88;;;2.10;;
38465;SDS011;24244;51.950;5.902;2022-07-23T12:04:39;6.35;;;2.15;;
38465;SDS011;24244;51.950;5.902;2022-07-23T12:09:49;5.13;;;2.20;;
38465;SDS011;24244;51.950;5.902;2022-07-23T12:12:15;7.57;;;2.00;;
38465;SDS011;24244;51.950;5.902;2022-07-23T12:14:46;5.57;;;2.20;;
38465;SDS011;24244;51.950;5.902;2022-07-23T12:17:15;6.22;;;2.33;;
38465;SDS011;24244;51.950;5.902;2022-07-23T12:19:40;6.90;;;2.33;;
38465;SDS011;24244;51.950;5.902;2022-07-23T12:22:06;6.35;;;2.50;;
38465;SDS011;24244;51.950;5.902;2022-07-23T12:27:23;5.20;;;1.92;;
38465;SDS011;24244;51.950;5.902;2022-07-23T12:29:49;6.93;;;2.20;;
38465;SDS011;24244;51.950;5.902;2022-07-23T12:32:20;5.55;;;2.30;;
38465;SDS011;24244;51.950;5.902;2022-07-23T12:34:48;6.65;;;2.30;;
38465;SDS011;24244;51.950;5.902;2022-07-23T12:37:28;4.30;;;1.95;;
38465;SDS011;24244;51.950;5.902;2022-07-23T12:39:55;5.50;;;2.35;;
38465;SDS011;24244;51.950;5.902;2022-07-23T12:42:21;7.68;;;2.45;;
38465;SDS011;24244;51.950;5.902;2022-07-23T12:47:54;6.20;;;2.50;;
38465;SDS011;24244;51.950;5.902;2022-07-23T12:50:31;5.60;;;1.98;;
38465;SDS011;24244;51.950;5.902;2022-07-23T12:53:03;5.63;;;2.45;;
38465;SDS011;24244;51.950;5.902;2022-07-23T12:55:29;7.28;;;2.60;;
38465;SDS011;24244;51.950;5.902;2022-07-23T12:58:02;5.50;;;2.38;;
38465;SDS011;24244;51.950;5.902;2022-07-23T13:00:29;5.72;;;2.40;;
38465;SDS011;24244;51.950;5.902;2022-07-23T13:02:56;5.32;;;2.13;;
38465;SDS011;24244;51.950;5.902;2022-07-23T13:05:22;6.03;;;2.47;;
38465;SDS011;24244;51.950;5.902;2022-07-23T13:07:47;5.88;;;2.40;;
38465;SDS011;24244;51.950;5.902;2022-07-23T13:10:14;7.20;;;2.88;;
38465;SDS011;24244;51.950;5.902;2022-07-23T13:12:40;6.90;;;2.47;;
38465;SDS011;24244;51.950;5.902;2022-07-23T13:15:06;5.20;;;2.22;;
38465;SDS011;24244;51.950;5.902;2022-07-23T13:17:32;6.68;;;2.70;;
38465;SDS011;24244;51.950;5.902;2022-07-23T13:19:59;6.47;;;2.28;;
38465;SDS011;24244;51.950;5.902;2022-07-23T13:22:25;5.00;;;2.22;;
38465;SDS011;24244;51.950;5.902;2022-07-23T13:24:50;6.35;;;2.33;;
38465;SDS011;24244;51.950;5.902;2022-07-23T13:27:16;5.68;;;2.35;;
38465;SDS011;24244;51.950;5.902;2022-07-23T13:29:41;6.25;;;2.45;;
38465;SDS011;24244;51.950;5.902;2022-07-23T13:32:07;7.72;;;2.92;;
38465;SDS011;24244;51.950;5.902;2022-07-23T13:34:37;6.70;;;2.63;;
38465;SDS011;24244;51.950;5.902;2022-07-23T13:37:03;5.57;;;2.38;;
38465;SDS011;24244;51.950;5.902;2022-07-23T13:39:29;5.90;;;2.22;;
38465;SDS011;24244;51.950;5.902;2022-07-23T13:41:54;8.23;;;2.83;;
38465;SDS011;24244;51.950;5.902;2022-07-23T13:44:24;5.30;;;2.33;;
38465;SDS011;24244;51.950;5.902;2022-07-23T13:46:50;6.13;;;2.50;;
38465;SDS011;24244;51.950;5.902;2022-07-23T13:49:18;5.03;;;2.13;;
38465;SDS011;24244;51.950;5.902;2022-07-23T13:51:43;6.40;;;2.33;;
38465;SDS011;24244;51.950;5.902;2022-07-23T13:54:10;5.13;;;2.22;;
38465;SDS011;24244;51.950;5.902;2022-07-23T13:56:36;6.43;;;2.28;;
38465;SDS011;24244;51.950;5.902;2022-07-23T13:59:02;6.00;;;2.60;;
38465;SDS011;24244;51.950;5.902;2022-07-23T14:01:28;6.47;;;2.38;;
38465;SDS011;24244;51.950;5.902;2022-07-23T14:03:53;6.13;;;2.30;;
38465;SDS011;24244;51.950;5.902;2022-07-23T14:06:19;5.38;;;2.13;;
38465;SDS011;24244;51.950;5.902;2022-07-23T14:08:44;7.25;;;2.55;;
38465;SDS011;24244;51.950;5.902;2022-07-23T14:11:11;7.15;;;2.40;;
38465;SDS011;24244;51.950;5.902;2022-07-23T14:13:37;7.38;;;2.45;;
38465;SDS011;24244;51.950;5.902;2022-07-23T14:16:03;7.03;;;2.15;;
38465;SDS011;24244;51.950;5.902;2022-07-23T14:18:29;5.90;;;2.70;;
38465;SDS011;24244;51.950;5.902;2022-07-23T14:20:55;6.07;;;2.35;;
38465;SDS011;24244;51.950;5.902;2022-07-23T14:23:20;6.20;;;2.35;;
38465;SDS011;24244;51.950;5.902;2022-07-23T14:25:49;6.63;;;2.15;;
38465;SDS011;24244;51.950;5.902;2022-07-23T14:28:16;4.65;;;2.03;;
38465;SDS011;24244;51.950;5.902;2022-07-23T14:30:42;4.95;;;2.10;;
38465;SDS011;24244;51.950;5.902;2022-07-23T14:33:08;5.60;;;2.45;;
38465;SDS011;24244;51.950;5.902;2022-07-23T14:35:34;5.50;;;2.40;;
38465;SDS011;24244;51.950;5.902;2022-07-23T14:38:00;5.93;;;2.20;;
38465;SDS011;24244;51.950;5.902;2022-07-23T14:40:25;6.07;;;2.38;;
38465;SDS011;24244;51.950;5.902;2022-07-23T14:42:51;5.75;;;2.40;;
38465;SDS011;24244;51.950;5.902;2022-07-23T14:45:17;4.78;;;2.25;;
38465;SDS011;24244;51.950;5.902;2022-07-23T14:47:43;6.45;;;2.50;;
38465;SDS011;24244;51.950;5.902;2022-07-23T14:50:09;5.55;;;2.20;;
38465;SDS011;24244;51.950;5.902;2022-07-23T14:52:34;6.80;;;2.38;;
38465;SDS011;24244;51.950;5.902;2022-07-23T14:55:00;7.82;;;2.40;;
38465;SDS011;24244;51.950;5.902;2022-07-23T14:57:26;6.65;;;2.53;;
38465;SDS011;24244;51.950;5.902;2022-07-23T14:59:51;6.10;;;2.35;;
38465;SDS011;24244;51.950;5.902;2022-07-23T15:02:18;5.80;;;2.40;;
38465;SDS011;24244;51.950;5.902;2022-07-23T15:04:43;6.28;;;2.60;;
38465;SDS011;24244;51.950;5.902;2022-07-23T15:07:09;5.32;;;2.40;;